PHWJK EHEH-EHEH

Flight info

Callsign PHWJK
Flight time 0h 24m
Altitude 1000
Route LOCAL VFR
Aircraft DA40/L-SBDGRY/S

Departure

Time 2026-05-01 14:18
Airport Eindhoven Airport (EHEH)

Arrival

Time 2026-05-01 14:42
Airport Eindhoven Airport (EHEH)
Time Latitude Longitude Altitude Speed Heading
2026-05-01 14:06 51.45758 5.37728 65 ft 0 kts 55°
2026-05-01 14:11 51.45770 5.37760 64 ft 0 kts 65°
2026-05-01 14:13 51.45785 5.37815 65 ft 7 kts 42°
2026-05-01 14:13 51.45839 5.37885 68 ft 8 kts 33°
2026-05-01 14:14 51.45884 5.37939 68 ft 15 kts 40°
2026-05-01 14:14 51.45948 5.38025 65 ft 20 kts 40°
2026-05-01 14:14 51.46050 5.38155 64 ft 8 kts 56°
2026-05-01 14:14 51.46045 5.38217 68 ft 7 kts 124°
2026-05-01 14:15 51.46002 5.38310 69 ft 9 kts 128°
2026-05-01 14:15 51.45984 5.38348 68 ft 0 kts 125°
2026-05-01 14:16 51.45953 5.38417 70 ft 13 kts 126°
2026-05-01 14:16 51.45910 5.38459 71 ft 4 kts 197°
2026-05-01 14:17 51.45908 5.38457 71 ft 0 kts 213°
2026-05-01 14:17 51.45856 5.38408 71 ft 26 kts 212°
2026-05-01 14:17 51.45593 5.38105 69 ft 68 kts 212°
2026-05-01 14:18 51.45142 5.37619 159 ft 86 kts 206°
2026-05-01 14:18 51.44665 5.37009 315 ft 90 kts 211°
2026-05-01 14:18 51.44158 5.36421 592 ft 90 kts 209°
2026-05-01 14:18 51.43684 5.35769 811 ft 87 kts 224°
2026-05-01 14:19 51.43731 5.34814 931 ft 96 kts 302°
2026-05-01 14:19 51.44191 5.33975 1017 ft 101 kts 316°
2026-05-01 14:19 51.44820 5.33929 1144 ft 96 kts 41°
2026-05-01 14:19 51.45424 5.34459 1012 ft 101 kts 33°
2026-05-01 14:20 51.46015 5.34985 902 ft 91 kts 39°
2026-05-01 14:20 51.47096 5.34781 993 ft 96 kts 309°
2026-05-01 14:20 51.47536 5.33830 955 ft 120 kts 303°
2026-05-01 14:21 51.48024 5.32674 967 ft 131 kts 304°
2026-05-01 14:21 51.48590 5.31525 945 ft 130 kts 312°
2026-05-01 14:21 51.49182 5.30467 930 ft 126 kts 314°
2026-05-01 14:22 51.50605 5.29009 877 ft 124 kts 347°
2026-05-01 14:22 51.51434 5.28792 936 ft 117 kts
2026-05-01 14:22 51.52261 5.28769 831 ft 120 kts
2026-05-01 14:22 51.53081 5.28831 893 ft 112 kts
2026-05-01 14:23 51.53810 5.28961 955 ft 105 kts
2026-05-01 14:23 51.54553 5.29108 951 ft 111 kts
2026-05-01 14:23 51.55351 5.29251 850 ft 120 kts
2026-05-01 14:23 51.56179 5.29393 866 ft 119 kts 10°
2026-05-01 14:24 51.56980 5.29587 880 ft 116 kts 15°
2026-05-01 14:24 51.57781 5.29811 854 ft 114 kts 15°
2026-05-01 14:24 51.58527 5.30087 873 ft 107 kts 15°
2026-05-01 14:24 51.59241 5.30341 1002 ft 110 kts 16°
2026-05-01 14:25 51.60002 5.30593 1003 ft 118 kts 13°
2026-05-01 14:25 51.60818 5.30872 944 ft 120 kts 15°
2026-05-01 14:25 51.61560 5.30489 889 ft 118 kts 295°
2026-05-01 14:25 51.61439 5.29484 958 ft 88 kts 205°
2026-05-01 14:26 51.60919 5.29687 950 ft 90 kts 125°
2026-05-01 14:26 51.60065 5.29746 898 ft 101 kts 250°
2026-05-01 14:26 51.59856 5.28640 956 ft 106 kts 243°
2026-05-01 14:27 51.59543 5.27600 956 ft 92 kts 237°
2026-05-01 14:27 51.59300 5.26824 873 ft 70 kts 236°
2026-05-01 14:27 51.59110 5.26158 778 ft 72 kts 232°
2026-05-01 14:28 51.58992 5.24247 1068 ft 108 kts 288°
2026-05-01 14:28 51.59129 5.23021 1118 ft 114 kts 263°
2026-05-01 14:28 51.59015 5.21817 1155 ft 106 kts 252°
2026-05-01 14:28 51.58857 5.20710 1263 ft 99 kts 244°
2026-05-01 14:29 51.58630 5.19657 1345 ft 101 kts 247°
2026-05-01 14:29 51.58367 5.18506 1313 ft 118 kts 245°
2026-05-01 14:30 51.57420 5.14873 1055 ft 115 kts 232°
2026-05-01 14:30 51.56876 5.13980 1015 ft 110 kts 216°
2026-05-01 14:30 51.56288 5.13175 999 ft 112 kts 213°
2026-05-01 14:31 51.55114 5.11640 991 ft 101 kts 193°
2026-05-01 14:31 51.54423 5.11702 1000 ft 102 kts 165°
2026-05-01 14:31 51.53729 5.12012 997 ft 104 kts 160°
2026-05-01 14:31 51.53136 5.12687 994 ft 108 kts 141°
2026-05-01 14:32 51.52569 5.13498 992 ft 110 kts 137°
2026-05-01 14:32 51.52049 5.14409 991 ft 111 kts 134°
2026-05-01 14:32 51.51536 5.15334 993 ft 112 kts 134°
2026-05-01 14:32 51.51013 5.16276 993 ft 114 kts 134°
2026-05-01 14:33 51.50582 5.17353 988 ft 115 kts 123°
2026-05-01 14:33 51.50192 5.18448 987 ft 112 kts 122°
2026-05-01 14:33 51.49813 5.19547 995 ft 114 kts 115°
2026-05-01 14:33 51.49785 5.20842 976 ft 119 kts 91°
2026-05-01 14:34 51.49887 5.22111 991 ft 111 kts 89°
2026-05-01 14:34 51.49960 5.23292 987 ft 106 kts 90°
2026-05-01 14:34 51.50016 5.24477 996 ft 107 kts 92°
2026-05-01 14:34 51.50100 5.25661 987 ft 106 kts 90°
2026-05-01 14:35 51.50181 5.26813 998 ft 98 kts 91°
2026-05-01 14:35 51.50179 5.27883 982 ft 93 kts 105°
2026-05-01 14:35 51.49982 5.28820 1006 ft 89 kts 123°
2026-05-01 14:35 51.49599 5.29663 1003 ft 97 kts 127°
2026-05-01 14:36 51.49196 5.30574 992 ft 103 kts 125°
2026-05-01 14:36 51.48783 5.31530 966 ft 105 kts 125°
2026-05-01 14:36 51.48378 5.32496 966 ft 106 kts 124°
2026-05-01 14:36 51.47969 5.33479 972 ft 106 kts 127°
2026-05-01 14:37 51.47554 5.34462 933 ft 108 kts 126°
2026-05-01 14:37 51.47157 5.35458 903 ft 103 kts 113°
2026-05-01 14:37 51.47418 5.36473 905 ft 110 kts 48°
2026-05-01 14:37 51.47869 5.37389 853 ft 104 kts 83°
2026-05-01 14:38 51.47599 5.38382 694 ft 96 kts 136°
2026-05-01 14:38 51.47183 5.39145 544 ft 85 kts 146°
2026-05-01 14:38 51.46633 5.39199 344 ft 83 kts 202°
2026-05-01 14:38 51.46175 5.38742 119 ft 72 kts 207°
2026-05-01 14:39 51.45799 5.38329 74 ft 60 kts 209°
2026-05-01 14:39 51.45456 5.37965 93 ft 68 kts 208°
2026-05-01 14:39 51.45077 5.37391 256 ft 81 kts 230°
2026-05-01 14:39 51.45065 5.36469 533 ft 89 kts 284°
2026-05-01 14:40 51.45309 5.35517 774 ft 91 kts 296°
2026-05-01 14:40 51.45831 5.34950 940 ft 97 kts
2026-05-01 14:40 51.46406 5.35381 1065 ft 95 kts 44°
2026-05-01 14:40 51.46970 5.36087 1020 ft 108 kts 45°
2026-05-01 14:41 51.47559 5.36841 975 ft 109 kts 44°
2026-05-01 14:41 51.47881 5.37756 862 ft 87 kts 100°
2026-05-01 14:41 51.47556 5.38517 642 ft 84 kts 136°
2026-05-01 14:41 51.47148 5.39164 508 ft 77 kts 153°
2026-05-01 14:42 51.46608 5.39169 318 ft 84 kts 191°
2026-05-01 14:42 51.46156 5.38714 138 ft 71 kts 203°
2026-05-01 14:42 51.45779 5.38308 73 ft 59 kts 200°
2026-05-01 14:42 51.45516 5.38063 68 ft 23 kts 226°
2026-05-01 14:43 51.45443 5.37942 72 ft 11 kts 235°
2026-05-01 14:43 51.45341 5.37827 70 ft 34 kts 211°
2026-05-01 14:43 51.45076 5.37547 61 ft 60 kts 214°
2026-05-01 14:43 51.44703 5.37094 174 ft 75 kts 200°
2026-05-01 14:44 51.44250 5.36628 365 ft 78 kts 207°
2026-05-01 14:44 51.43851 5.35028 822 ft 114 kts 307°
2026-05-01 14:44 51.44572 5.34687 961 ft 110 kts 20°
2026-05-01 14:45 51.45222 5.35299 1123 ft 112 kts 39°
2026-05-01 14:45 51.46609 5.36814 900 ft 127 kts 43°
2026-05-01 14:45 51.47223 5.37536 784 ft 88 kts 45°
2026-05-01 14:46 51.47505 5.38358 705 ft 87 kts 100°
2026-05-01 14:46 51.46868 5.39420 396 ft 67 kts 189°
2026-05-01 14:46 51.46407 5.39019 218 ft 83 kts 211°
2026-05-01 14:47 51.45971 5.38517 89 ft 69 kts 205°
2026-05-01 14:47 51.45642 5.38162 69 ft 41 kts 217°
2026-05-01 14:47 51.45567 5.38045 71 ft 6 kts 273°
2026-05-01 14:48 51.45616 5.37922 65 ft 0 kts 311°
2026-05-01 14:48 51.45620 5.37910 67 ft 3 kts 302°
2026-05-01 14:48 51.45725 5.37968 65 ft 9 kts 37°
2026-05-01 14:49 51.45839 5.37957 67 ft 9 kts 303°
2026-05-01 14:49 51.45777 5.37797 68 ft 10 kts 241°
2026-05-01 14:50 51.45771 5.37760 67 ft 0 kts 233°